Time;durP1;ratioP1;P1;durP2;ratioP2;P2;SDS_P1;SDS_P2;PMS_P1;PMS_P2;Temp;Humidity;BMP_temperature;BMP_pressure;BME280_temperature;BME280_humidity;BME280_pressure;Samples;Min_cycle;Max_cycle;Signal;HPM_P1;HPM_P2
2023/04/13 00:00:35;;;;;;;3.00;1.58;;;;;;;;;;5050309;28;20080;-81
2023/04/13 00:03:02;;;;;;;3.78;1.55;;;;;;;;;;5041044;28;20047;-81
2023/04/13 00:05:50;;;;;;;4.85;1.55;;;;;;;;;;5074573;28;20128;-80
2023/04/13 00:08:17;;;;;;;4.88;1.67;;;;;;;;;;5090921;28;20048;-81
2023/04/13 00:10:44;;;;;;;4.88;1.30;;;;;;;;;;5091340;28;20048;-81
2023/04/13 00:13:11;;;;;;;3.92;1.30;;;;;;;;;;5074012;28;20083;-81
2023/04/13 00:15:40;;;;;;;3.47;1.17;;;;;;;;;;5091188;28;20051;-81
2023/04/13 00:18:07;;;;;;;4.15;1.10;;;;;;;;;;5090930;28;20105;-81
2023/04/13 00:20:33;;;;;;;3.60;1.10;;;;;;;;;;5073792;28;20058;-81
2023/04/13 00:23:00;;;;;;;2.60;1.00;;;;;;;;;;5074022;28;20036;-81
2023/04/13 00:25:26;;;;;;;3.78;1.10;;;;;;;;;;5058802;28;20053;-81
2023/04/13 00:27:52;;;;;;;2.15;1.00;;;;;;;;;;5054230;28;20485;-80
2023/04/13 00:30:20;;;;;;;3.47;1.15;;;;;;;;;;5070292;28;20040;-81
2023/04/13 00:32:46;;;;;;;4.15;1.20;;;;;;;;;;5070553;28;20071;-81
2023/04/13 00:35:14;;;;;;;3.53;1.10;;;;;;;;;;5053319;28;20052;-81
2023/04/13 00:37:43;;;;;;;6.20;1.23;;;;;;;;;;5054820;28;20126;-80
2023/04/13 00:40:10;;;;;;;3.35;1.10;;;;;;;;;;5053145;28;20072;-80
2023/04/13 00:42:36;;;;;;;7.05;1.33;;;;;;;;;;5051186;28;20073;-80
2023/04/13 00:45:02;;;;;;;3.35;1.60;;;;;;;;;;5052839;28;20052;-80
2023/04/13 00:47:31;;;;;;;2.25;1.10;;;;;;;;;;5051085;28;20040;-80
2023/04/13 00:49:59;;;;;;;3.20;1.23;;;;;;;;;;5051876;28;20564;-80
2023/04/13 00:52:26;;;;;;;4.38;1.30;;;;;;;;;;5051193;28;20067;-80
2023/04/13 00:54:55;;;;;;;4.45;1.52;;;;;;;;;;5051710;28;20048;-80
2023/04/13 00:57:21;;;;;;;3.55;1.25;;;;;;;;;;5051872;28;20456;-80
2023/04/13 00:59:48;;;;;;;5.38;1.42;;;;;;;;;;5051641;28;20037;-80
2023/04/13 01:02:15;;;;;;;3.60;1.45;;;;;;;;;;5050682;28;20409;-80
2023/04/13 01:04:44;;;;;;;6.60;1.40;;;;;;;;;;5068065;28;20052;-80
2023/04/13 01:07:20;;;;;;;5.30;1.30;;;;;;;;;;5049994;28;20115;-80
2023/04/13 01:10:05;;;;;;;3.58;1.17;;;;;;;;;;5043424;28;20045;-80
2023/04/13 01:12:41;;;;;;;4.25;1.30;;;;;;;;;;5063348;28;20040;-80
2023/04/13 01:15:07;;;;;;;3.90;1.40;;;;;;;;;;5059584;28;20044;-80
2023/04/13 01:17:36;;;;;;;5.32;1.77;;;;;;;;;;5069085;28;20051;-80
2023/04/13 01:20:12;;;;;;;3.83;1.27;;;;;;;;;;5070938;28;20048;-80
2023/04/13 01:22:41;;;;;;;3.72;1.45;;;;;;;;;;5071665;28;20033;-80
2023/04/13 01:25:25;;;;;;;3.08;1.40;;;;;;;;;;5072473;28;20043;-80
2023/04/13 01:27:54;;;;;;;4.72;1.38;;;;;;;;;;5070670;28;20052;-80
2023/04/13 01:30:22;;;;;;;3.00;1.50;;;;;;;;;;5053878;28;20105;-80
2023/04/13 01:32:49;;;;;;;3.38;1.42;;;;;;;;;;5070701;28;20044;-80
2023/04/13 01:35:17;;;;;;;2.78;1.30;;;;;;;;;;5072433;28;20045;-80
2023/04/13 01:37:44;;;;;;;7.25;1.67;;;;;;;;;;5075458;28;20044;-80
2023/04/13 01:40:11;;;;;;;5.15;1.58;;;;;;;;;;5068015;28;20033;-80
2023/04/13 01:42:41;;;;;;;4.15;1.77;;;;;;;;;;5068592;28;20048;-80
2023/04/13 01:45:28;;;;;;;5.68;1.90;;;;;;;;;;5076402;28;20039;-80
2023/04/13 01:48:03;;;;;;;3.40;1.80;;;;;;;;;;5074427;28;20493;-80
2023/04/13 01:50:31;;;;;;;3.20;1.30;;;;;;;;;;5075565;28;20091;-80
2023/04/13 01:52:59;;;;;;;4.97;1.63;;;;;;;;;;5074438;28;20048;-80
2023/04/13 01:55:26;;;;;;;3.80;1.48;;;;;;;;;;5075617;28;20137;-81
2023/04/13 01:57:54;;;;;;;5.25;1.70;;;;;;;;;;5073986;28;20098;-80
2023/04/13 02:00:20;;;;;;;3.75;1.42;;;;;;;;;;5074437;28;20059;-80
2023/04/13 02:02:48;;;;;;;4.25;1.55;;;;;;;;;;5050140;28;20037;-80
2023/04/13 02:05:14;;;;;;;4.03;1.65;;;;;;;;;;5052533;28;20041;-80
2023/04/13 02:07:40;;;;;;;4.05;1.50;;;;;;;;;;5054190;28;20045;-80
2023/04/13 02:10:06;;;;;;;3.40;1.15;;;;;;;;;;5053943;28;20053;-80
2023/04/13 02:12:33;;;;;;;3.45;1.70;;;;;;;;;;5055251;28;20041;-80
2023/04/13 02:15:00;;;;;;;9.48;2.00;;;;;;;;;;5054157;28;20489;-80
2023/04/13 02:17:29;;;;;;;5.63;1.30;;;;;;;;;;5053601;28;20104;-80
2023/04/13 02:19:55;;;;;;;3.45;1.30;;;;;;;;;;5053698;28;20040;-80
2023/04/13 02:22:22;;;;;;;5.40;1.40;;;;;;;;;;5055378;28;20036;-80
2023/04/13 02:24:49;;;;;;;2.83;1.30;;;;;;;;;;5054813;28;20068;-80
2023/04/13 02:27:16;;;;;;;4.30;1.48;;;;;;;;;;5037321;28;20036;-80
2023/04/13 02:29:42;;;;;;;4.75;1.42;;;;;;;;;;5036760;28;20052;-80
2023/04/13 02:32:08;;;;;;;3.55;1.50;;;;;;;;;;5037209;28;20103;-80
2023/04/13 02:34:34;;;;;;;2.97;1.40;;;;;;;;;;5053153;28;20135;-80
2023/04/13 02:37:01;;;;;;;4.63;1.60;;;;;;;;;;5053397;28;20486;-80
2023/04/13 02:39:27;;;;;;;3.92;1.45;;;;;;;;;;5053807;28;20076;-80
2023/04/13 02:41:53;;;;;;;2.72;1.20;;;;;;;;;;5053678;28;20072;-80
2023/04/13 02:44:20;;;;;;;4.20;1.80;;;;;;;;;;5054843;28;20036;-80
2023/04/13 02:46:47;;;;;;;4.70;1.73;;;;;;;;;;5054118;28;20102;-80
2023/04/13 02:49:13;;;;;;;2.92;1.48;;;;;;;;;;5054322;28;20383;-80
2023/04/13 02:51:39;;;;;;;4.20;1.55;;;;;;;;;;5054019;28;20395;-80
2023/04/13 02:54:08;;;;;;;5.43;1.83;;;;;;;;;;5054466;28;20387;-80
2023/04/13 02:56:35;;;;;;;4.55;1.70;;;;;;;;;;5053963;28;20072;-80
2023/04/13 02:59:01;;;;;;;5.25;1.90;;;;;;;;;;5053351;28;20048;-80
2023/04/13 03:01:28;;;;;;;5.20;1.70;;;;;;;;;;5045867;28;20045;-80
2023/04/13 03:03:55;;;;;;;12.98;1.80;;;;;;;;;;5053989;28;20504;-80
2023/04/13 03:06:24;;;;;;;3.65;1.80;;;;;;;;;;5054346;28;20041;-80
2023/04/13 03:08:50;;;;;;;3.38;1.83;;;;;;;;;;5053684;28;20102;-80
2023/04/13 03:11:22;;;;;;;3.30;1.90;;;;;;;;;;5053431;28;20511;-80
2023/04/13 03:13:48;;;;;;;3.88;1.90;;;;;;;;;;5053808;28;20497;-80
2023/04/13 03:16:14;;;;;;;4.13;1.77;;;;;;;;;;5062884;28;20063;-80
2023/04/13 03:18:40;;;;;;;3.28;2.00;;;;;;;;;;5072513;28;20370;-80
2023/04/13 03:21:06;;;;;;;3.53;1.90;;;;;;;;;;5074216;28;20434;-80
2023/04/13 03:23:33;;;;;;;4.15;2.15;;;;;;;;;;5072440;28;20036;-80
2023/04/13 03:25:59;;;;;;;4.25;1.90;;;;;;;;;;5072670;28;20105;-80
2023/04/13 03:28:25;;;;;;;3.88;1.98;;;;;;;;;;5072821;28;20047;-80
2023/04/13 03:30:51;;;;;;;4.93;2.30;;;;;;;;;;5073343;28;20040;-80
2023/04/13 03:33:17;;;;;;;5.97;2.20;;;;;;;;;;5072785;28;20049;-80
2023/04/13 03:35:43;;;;;;;4.30;2.15;;;;;;;;;;5073532;28;20079;-80
2023/04/13 03:38:10;;;;;;;2.95;1.98;;;;;;;;;;5073644;28;20036;-80
2023/04/13 03:40:36;;;;;;;5.45;2.08;;;;;;;;;;5041729;28;20067;-80
2023/04/13 03:43:02;;;;;;;3.75;1.90;;;;;;;;;;5072466;28;20058;-80
2023/04/13 03:45:28;;;;;;;5.05;2.38;;;;;;;;;;5073595;28;20044;-80
2023/04/13 03:47:54;;;;;;;4.63;2.17;;;;;;;;;;5050434;28;20088;-80
2023/04/13 03:50:21;;;;;;;5.32;2.20;;;;;;;;;;5051718;28;20061;-80
2023/04/13 03:52:47;;;;;;;3.97;2.10;;;;;;;;;;5052956;28;20111;-80
2023/04/13 03:55:13;;;;;;;6.80;2.28;;;;;;;;;;5053566;28;20095;-80
2023/04/13 03:57:39;;;;;;;4.10;2.20;;;;;;;;;;5052679;28;20124;-80
2023/04/13 04:00:09;;;;;;;5.28;2.35;;;;;;;;;;5052354;28;20048;-80
2023/04/13 04:02:36;;;;;;;6.20;2.60;;;;;;;;;;5047706;28;20051;-80
2023/04/13 04:05:03;;;;;;;4.93;2.63;;;;;;;;;;5051062;28;20508;-80
2023/04/13 04:07:29;;;;;;;5.82;2.75;;;;;;;;;;5063933;28;20041;-80
2023/04/13 04:09:55;;;;;;;4.68;2.72;;;;;;;;;;5053300;28;20041;-80
2023/04/13 04:12:21;;;;;;;6.72;3.13;;;;;;;;;;5053044;28;20493;-80
2023/04/13 04:14:47;;;;;;;6.55;3.30;;;;;;;;;;5051247;28;20049;-80
2023/04/13 04:17:13;;;;;;;6.18;3.40;;;;;;;;;;5071050;28;20055;-80
2023/04/13 04:19:39;;;;;;;6.30;3.30;;;;;;;;;;5072802;28;20036;-80
2023/04/13 04:22:05;;;;;;;7.72;3.67;;;;;;;;;;5057042;28;20497;-80
2023/04/13 04:24:32;;;;;;;7.55;4.05;;;;;;;;;;5052679;28;20043;-80
2023/04/13 04:27:01;;;;;;;6.68;3.90;;;;;;;;;;5051342;28;20048;-80
2023/04/13 04:29:33;;;;;;;7.90;4.10;;;;;;;;;;5051373;28;20072;-80
2023/04/13 04:32:00;;;;;;;6.18;4.03;;;;;;;;;;5051056;28;20048;-80
2023/04/13 04:34:26;;;;;;;7.55;4.03;;;;;;;;;;5052534;28;20078;-80
2023/04/13 04:36:53;;;;;;;9.38;3.85;;;;;;;;;;5051043;28;20448;-80
2023/04/13 04:39:21;;;;;;;6.32;4.03;;;;;;;;;;5052433;28;20371;-80
2023/04/13 04:41:48;;;;;;;9.68;4.30;;;;;;;;;;5052029;28;20045;-80
2023/04/13 04:44:15;;;;;;;7.63;3.90;;;;;;;;;;5052709;28;20379;-80
2023/04/13 04:46:42;;;;;;;8.45;3.92;;;;;;;;;;5052337;28;20051;-80
2023/04/13 04:49:08;;;;;;;7.55;3.40;;;;;;;;;;5052498;28;20047;-80
2023/04/13 04:51:36;;;;;;;10.00;3.65;;;;;;;;;;5051204;28;20557;-80
2023/04/13 04:54:02;;;;;;;6.18;3.33;;;;;;;;;;5051727;28;20043;-80
2023/04/13 04:56:28;;;;;;;5.50;2.65;;;;;;;;;;5052002;28;20041;-80
2023/04/13 04:58:55;;;;;;;8.52;3.45;;;;;;;;;;5034084;28;20037;-80
2023/04/13 05:01:25;;;;;;;7.55;3.33;;;;;;;;;;5025964;28;20041;-80
2023/04/13 05:03:52;;;;;;;7.18;3.03;;;;;;;;;;5051569;28;20068;-80
2023/04/13 05:06:18;;;;;;;5.80;2.90;;;;;;;;;;5052253;28;20079;-80
2023/04/13 05:08:44;;;;;;;8.00;3.30;;;;;;;;;;5050671;28;20098;-80
2023/04/13 05:11:10;;;;;;;8.50;2.80;;;;;;;;;;5051292;28;20120;-80
2023/04/13 05:13:36;;;;;;;6.65;2.75;;;;;;;;;;5067781;28;20124;-80
2023/04/13 05:16:04;;;;;;;10.27;2.85;;;;;;;;;;5067108;28;20486;-80
2023/04/13 05:18:34;;;;;;;8.85;2.60;;;;;;;;;;5052090;28;20509;-80
2023/04/13 05:21:00;;;;;;;7.03;2.80;;;;;;;;;;5051639;28;20064;-80
2023/04/13 05:23:26;;;;;;;8.15;2.60;;;;;;;;;;5052019;28;20044;-80
2023/04/13 05:25:52;;;;;;;6.53;2.50;;;;;;;;;;5050071;28;20060;-80
2023/04/13 05:28:20;;;;;;;6.97;2.55;;;;;;;;;;5050705;28;20072;-80
2023/04/13 05:30:46;;;;;;;8.57;2.88;;;;;;;;;;5051028;28;20505;-80
2023/04/13 05:33:12;;;;;;;4.45;2.40;;;;;;;;;;5050427;28;20421;-81
2023/04/13 05:35:39;;;;;;;6.28;2.70;;;;;;;;;;5050822;28;20505;-80
2023/04/13 05:38:05;;;;;;;4.50;2.50;;;;;;;;;;5051379;28;20513;-80
2023/04/13 05:40:34;;;;;;;8.75;3.35;;;;;;;;;;5051926;28;20045;-80
2023/04/13 05:43:00;;;;;;;9.00;3.13;;;;;;;;;;5050608;28;20045;-81
2023/04/13 05:45:27;;;;;;;10.80;3.10;;;;;;;;;;5050685;28;20041;-80
2023/04/13 05:47:53;;;;;;;5.47;2.55;;;;;;;;;;5051426;28;20045;-81
2023/04/13 05:50:19;;;;;;;9.25;3.13;;;;;;;;;;5033723;28;20053;-80
2023/04/13 05:52:46;;;;;;;7.13;2.60;;;;;;;;;;5050616;28;20080;-80
2023/04/13 05:55:12;;;;;;;8.23;2.80;;;;;;;;;;5051235;28;20037;-80
2023/04/13 05:57:38;;;;;;;11.93;2.83;;;;;;;;;;5050570;28;20044;-81
2023/04/13 06:00:06;;;;;;;9.13;2.53;;;;;;;;;;5050041;28;20044;-81
2023/04/13 06:02:34;;;;;;;4.35;2.30;;;;;;;;;;5024877;28;20060;-81
2023/04/13 06:05:01;;;;;;;6.78;2.22;;;;;;;;;;5049988;28;20067;-81
2023/04/13 06:07:27;;;;;;;5.60;1.88;;;;;;;;;;5050232;28;20090;-81
2023/04/13 06:09:53;;;;;;;8.55;2.05;;;;;;;;;;5051889;28;20535;-81
2023/04/13 06:12:19;;;;;;;11.30;2.22;;;;;;;;;;5050533;28;20505;-81
2023/04/13 06:14:45;;;;;;;6.55;2.00;;;;;;;;;;5051501;28;20044;-81
2023/04/13 06:17:11;;;;;;;8.43;2.10;;;;;;;;;;5067724;28;20094;-82
2023/04/13 06:19:37;;;;;;;7.95;2.28;;;;;;;;;;5071616;28;20044;-81
2023/04/13 06:22:03;;;;;;;7.03;2.08;;;;;;;;;;5071107;28;20044;-81
2023/04/13 06:24:29;;;;;;;7.20;2.20;;;;;;;;;;5075447;28;20111;-82
2023/04/13 06:26:57;;;;;;;10.95;2.33;;;;;;;;;;5073844;28;20527;-81
2023/04/13 06:29:23;;;;;;;4.82;2.20;;;;;;;;;;5060005;28;20063;-81
2023/04/13 06:31:49;;;;;;;8.70;2.50;;;;;;;;;;5062031;28;20493;-82
2023/04/13 06:34:15;;;;;;;7.95;2.30;;;;;;;;;;5071705;28;20040;-81
2023/04/13 06:36:41;;;;;;;9.88;2.45;;;;;;;;;;5057287;28;20032;-81
2023/04/13 06:39:08;;;;;;;10.68;2.83;;;;;;;;;;5060612;28;20045;-81
2023/04/13 06:41:34;;;;;;;6.88;2.20;;;;;;;;;;5064443;28;20079;-81
2023/04/13 06:44:00;;;;;;;5.60;1.98;;;;;;;;;;5054742;28;20103;-81
2023/04/13 06:46:26;;;;;;;6.82;2.20;;;;;;;;;;5053550;28;20049;-81
2023/04/13 06:48:52;;;;;;;6.72;1.98;;;;;;;;;;5053337;28;20080;-81
2023/04/13 06:51:18;;;;;;;9.43;2.30;;;;;;;;;;5052750;28;20053;-82
2023/04/13 06:53:44;;;;;;;9.10;2.60;;;;;;;;;;5053516;28;20083;-81
2023/04/13 06:56:10;;;;;;;7.20;2.30;;;;;;;;;;5054219;28;20048;-81
2023/04/13 06:58:36;;;;;;;8.48;2.20;;;;;;;;;;5036702;28;20041;-82
2023/04/13 07:01:03;;;;;;;7.45;2.15;;;;;;;;;;5048558;28;20147;-81
2023/04/13 07:03:29;;;;;;;11.82;2.30;;;;;;;;;;5048269;28;20077;-82
2023/04/13 07:05:55;;;;;;;9.27;2.40;;;;;;;;;;5055120;28;20087;-82
2023/04/13 07:08:21;;;;;;;7.45;2.28;;;;;;;;;;5053417;28;20049;-82
2023/04/13 07:10:51;;;;;;;8.77;2.38;;;;;;;;;;5053066;28;20033;-82
2023/04/13 07:13:17;;;;;;;8.73;2.35;;;;;;;;;;5054166;28;20041;-81
2023/04/13 07:15:44;;;;;;;8.63;1.90;;;;;;;;;;5054461;28;20041;-81
2023/04/13 07:18:10;;;;;;;8.15;2.65;;;;;;;;;;5054007;28;20052;-81
2023/04/13 07:20:37;;;;;;;7.55;2.05;;;;;;;;;;5054043;28;20044;-81
2023/04/13 07:23:03;;;;;;;7.20;2.00;;;;;;;;;;5054011;28;20049;-81
2023/04/13 07:25:29;;;;;;;13.48;5.18;;;;;;;;;;5053530;28;20052;-81
2023/04/13 07:27:55;;;;;;;16.63;6.03;;;;;;;;;;5053393;28;20536;-81
2023/04/13 07:30:21;;;;;;;19.08;6.90;;;;;;;;;;5052828;28;20041;-81
2023/04/13 07:32:47;;;;;;;14.98;5.20;;;;;;;;;;5052926;28;20052;-81
2023/04/13 07:35:14;;;;;;;12.38;3.83;;;;;;;;;;5035929;28;20036;-81
2023/04/13 07:37:41;;;;;;;9.75;3.53;;;;;;;;;;5054025;28;20048;-81
2023/04/13 07:40:07;;;;;;;8.65;3.30;;;;;;;;;;5052188;28;20036;-81
2023/04/13 07:42:34;;;;;;;8.63;2.97;;;;;;;;;;5052416;28;20090;-81
2023/04/13 07:45:00;;;;;;;8.63;3.42;;;;;;;;;;5036425;28;20390;-81
2023/04/13 07:47:27;;;;;;;10.98;3.15;;;;;;;;;;5053252;28;20083;-81
2023/04/13 07:49:53;;;;;;;9.38;3.22;;;;;;;;;;5052763;28;20037;-81
2023/04/13 07:52:19;;;;;;;8.73;3.20;;;;;;;;;;5051865;28;20057;-81
2023/04/13 07:54:45;;;;;;;9.60;2.22;;;;;;;;;;5052285;28;20045;-81
2023/04/13 07:57:11;;;;;;;9.63;2.60;;;;;;;;;;5035314;28;20486;-81
2023/04/13 07:59:37;;;;;;;10.60;3.05;;;;;;;;;;5052409;28;20517;-81
2023/04/13 08:02:04;;;;;;;13.20;4.95;;;;;;;;;;5063488;28;20041;-81
2023/04/13 08:04:30;;;;;;;19.40;6.65;;;;;;;;;;5052124;28;20517;-81
2023/04/13 08:06:57;;;;;;;19.15;6.55;;;;;;;;;;5052181;28;20095;-82
2023/04/13 08:09:23;;;;;;;16.45;6.18;;;;;;;;;;5051827;28;20036;-81
2023/04/13 08:11:49;;;;;;;16.13;5.82;;;;;;;;;;5052233;28;20482;-82
2023/04/13 08:14:15;;;;;;;15.55;5.97;;;;;;;;;;5052531;28;20098;-81
2023/04/13 08:16:41;;;;;;;13.32;5.50;;;;;;;;;;5053275;28;20044;-81
2023/04/13 08:19:07;;;;;;;10.45;4.20;;;;;;;;;;5051923;28;20390;-81
2023/04/13 08:21:36;;;;;;;12.00;3.55;;;;;;;;;;5052801;28;20040;-82
2023/04/13 08:24:02;;;;;;;8.45;3.05;;;;;;;;;;5051777;28;20045;-82
2023/04/13 08:26:28;;;;;;;8.82;2.92;;;;;;;;;;5051612;28;20052;-82
2023/04/13 08:28:56;;;;;;;7.82;2.30;;;;;;;;;;5052825;28;20045;-81
2023/04/13 08:31:22;;;;;;;7.65;2.10;;;;;;;;;;5052852;28;20116;-82
2023/04/13 08:33:48;;;;;;;5.75;1.85;;;;;;;;;;5051680;28;20071;-81
2023/04/13 08:36:16;;;;;;;4.20;1.15;;;;;;;;;;5052730;28;20041;-81
2023/04/13 08:38:42;;;;;;;4.03;1.30;;;;;;;;;;5052964;28;20098;-82
2023/04/13 08:41:09;;;;;;;3.58;1.25;;;;;;;;;;5051583;28;20044;-82
2023/04/13 08:43:35;;;;;;;3.95;1.10;;;;;;;;;;5050977;28;20048;-82
2023/04/13 08:46:05;;;;;;;2.75;1.15;;;;;;;;;;5052484;28;20044;-82
2023/04/13 08:48:32;;;;;;;4.45;1.10;;;;;;;;;;5051455;28;20446;-83
2023/04/13 08:51:00;;;;;;;4.15;1.17;;;;;;;;;;5052414;28;20068;-82
2023/04/13 08:53:27;;;;;;;5.53;1.05;;;;;;;;;;5052263;28;20127;-82
2023/04/13 08:55:54;;;;;;;4.50;0.90;;;;;;;;;;5051779;28;20382;-81
2023/04/13 08:58:21;;;;;;;3.92;0.80;;;;;;;;;;5052106;28;20049;-82
2023/04/13 09:00:48;;;;;;;2.40;0.68;;;;;;;;;;5048715;28;20398;-82
2023/04/13 09:03:19;;;;;;;6.93;0.70;;;;;;;;;;5043517;28;20102;-83
2023/04/13 09:05:48;;;;;;;4.70;0.70;;;;;;;;;;5051463;28;20112;-82
2023/04/13 09:08:15;;;;;;;3.63;0.90;;;;;;;;;;5051244;28;20080;-82
2023/04/13 09:10:42;;;;;;;3.05;0.60;;;;;;;;;;5052238;28;20052;-82
2023/04/13 09:13:08;;;;;;;5.55;0.85;;;;;;;;;;5068417;28;20551;-83
2023/04/13 09:15:34;;;;;;;3.83;0.93;;;;;;;;;;5055275;28;20553;-83
2023/04/13 09:18:11;;;;;;;5.50;1.25;;;;;;;;;;5072284;28;20508;-82
2023/04/13 09:20:37;;;;;;;6.70;1.40;;;;;;;;;;5070997;28;20316;-82
2023/04/13 09:23:22;;;;;;;6.13;1.17;;;;;;;;;;5070846;28;20044;-81
2023/04/13 09:25:49;;;;;;;5.15;1.48;;;;;;;;;;5071158;28;20044;-81
2023/04/13 09:28:18;;;;;;;6.22;1.50;;;;;;;;;;5070889;28;20052;-82
2023/04/13 09:30:45;;;;;;;6.28;0.98;;;;;;;;;;5070948;28;20045;-81
2023/04/13 09:33:12;;;;;;;3.78;0.95;;;;;;;;;;5071052;28;20512;-81
2023/04/13 09:35:38;;;;;;;5.43;1.17;;;;;;;;;;5070459;28;20040;-82
2023/04/13 09:38:06;;;;;;;4.47;1.02;;;;;;;;;;5072126;28;20084;-82
2023/04/13 09:40:32;;;;;;;7.00;1.25;;;;;;;;;;5070829;28;20517;-82
2023/04/13 09:43:03;;;;;;;6.65;1.65;;;;;;;;;;5070816;28;20068;-83
2023/04/13 09:45:33;;;;;;;5.63;1.50;;;;;;;;;;5070668;28;20454;-82
2023/04/13 09:48:01;;;;;;;9.10;1.70;;;;;;;;;;5067504;28;20045;-82
2023/04/13 09:50:27;;;;;;;7.82;1.83;;;;;;;;;;5051318;28;20044;-82
2023/04/13 09:53:09;;;;;;;9.55;2.47;;;;;;;;;;5033913;28;20053;-82
2023/04/13 09:55:36;;;;;;;10.90;1.75;;;;;;;;;;5050298;28;20056;-82
2023/04/13 09:58:16;;;;;;;9.43;1.73;;;;;;;;;;5052477;28;20424;-82
2023/04/13 10:00:45;;;;;;;13.63;2.30;;;;;;;;;;5052459;28;20621;-82
2023/04/13 10:03:12;;;;;;;12.00;2.20;;;;;;;;;;5054353;28;20072;-79
2023/04/13 10:05:39;;;;;;;7.15;1.30;;;;;;;;;;5053947;28;20041;-81
2023/04/13 10:08:05;;;;;;;2.80;0.70;;;;;;;;;;5054472;28;20103;-82
2023/04/13 10:10:41;;;;;;;3.83;0.70;;;;;;;;;;5053828;28;20091;-81
2023/04/13 10:13:21;;;;;;;5.05;0.85;;;;;;;;;;5037758;28;20553;-81
2023/04/13 10:16:08;;;;;;;6.10;1.20;;;;;;;;;;5047515;28;20042;-81
2023/04/13 10:18:46;;;;;;;12.68;2.42;;;;;;;;;;5073601;28;20049;-82
2023/04/13 10:21:13;;;;;;;10.05;2.40;;;;;;;;;;5073974;28;20044;-82
2023/04/13 10:23:39;;;;;;;10.80;2.90;;;;;;;;;;5074668;28;20052;-82
2023/04/13 10:26:06;;;;;;;12.68;2.40;;;;;;;;;;5071560;28;20486;-81
2023/04/13 10:28:45;;;;;;;13.35;2.40;;;;;;;;;;5054762;28;20048;-82
2023/04/13 10:31:11;;;;;;;12.75;2.10;;;;;;;;;;5055158;28;20055;-82
2023/04/13 10:34:06;;;;;;;17.42;2.33;;;;;;;;;;5054597;28;20037;-81
2023/04/13 10:36:40;;;;;;;11.30;2.13;;;;;;;;;;5083078;28;20057;-81
2023/04/13 10:39:08;;;;;;;8.88;2.00;;;;;;;;;;5053683;28;20057;-81
2023/04/13 10:41:37;;;;;;;14.50;2.72;;;;;;;;;;5053130;28;20071;-81
2023/04/13 10:44:05;;;;;;;8.50;1.98;;;;;;;;;;5053558;28;20086;-80
2023/04/13 10:46:34;;;;;;;13.60;1.90;;;;;;;;;;5054241;28;20048;-81
2023/04/13 10:49:01;;;;;;;11.13;1.90;;;;;;;;;;5054612;28;20170;-81
2023/04/13 10:51:46;;;;;;;6.63;1.75;;;;;;;;;;5054454;28;20056;-81
2023/04/13 10:54:12;;;;;;;12.90;2.95;;;;;;;;;;5053497;28;20057;-81
2023/04/13 10:56:39;;;;;;;11.75;2.17;;;;;;;;;;5053081;28;20083;-81
2023/04/13 10:59:05;;;;;;;11.52;2.13;;;;;;;;;;5053240;28;20071;-81
2023/04/13 11:01:32;;;;;;;10.07;2.17;;;;;;;;;;5052827;28;20041;-81
2023/04/13 11:04:03;;;;;;;12.05;1.80;;;;;;;;;;5053470;28;20073;-81
2023/04/13 11:06:38;;;;;;;10.68;2.38;;;;;;;;;;5054484;28;20512;-81
2023/04/13 11:09:05;;;;;;;11.52;1.88;;;;;;;;;;5052826;28;20051;-81
2023/04/13 11:11:32;;;;;;;9.38;1.50;;;;;;;;;;5053905;28;20041;-81
2023/04/13 11:13:58;;;;;;;11.48;2.35;;;;;;;;;;5053143;28;20394;-81
2023/04/13 11:16:24;;;;;;;10.00;2.10;;;;;;;;;;5064502;28;20123;-81
2023/04/13 11:19:00;;;;;;;9.30;1.75;;;;;;;;;;5072914;28;20550;-81
2023/04/13 11:21:26;;;;;;;9.90;1.90;;;;;;;;;;5074292;28;20094;-81
2023/04/13 11:23:52;;;;;;;11.35;1.98;;;;;;;;;;5073759;28;20042;-81
2023/04/13 11:26:29;;;;;;;10.25;1.80;;;;;;;;;;5074047;28;20068;-81
2023/04/13 11:28:56;;;;;;;9.48;1.77;;;;;;;;;;5072519;28;20052;-81
2023/04/13 11:31:23;;;;;;;7.82;1.75;;;;;;;;;;5074242;28;20037;-81
2023/04/13 11:33:50;;;;;;;9.23;2.00;;;;;;;;;;5072559;28;20036;-81
2023/04/13 11:36:18;;;;;;;8.40;1.92;;;;;;;;;;5073888;28;20097;-81
2023/04/13 11:38:46;;;;;;;7.82;1.98;;;;;;;;;;5072635;28;20045;-82
2023/04/13 11:41:14;;;;;;;9.02;1.90;;;;;;;;;;5074014;28;20044;-81
2023/04/13 11:43:40;;;;;;;8.73;1.65;;;;;;;;;;5073690;28;20420;-82
2023/04/13 11:46:09;;;;;;;9.20;1.55;;;;;;;;;;5072452;28;20049;-81
2023/04/13 11:48:36;;;;;;;7.20;1.70;;;;;;;;;;5063404;28;20047;-81
2023/04/13 11:51:02;;;;;;;10.13;2.05;;;;;;;;;;5069757;28;20102;-81
2023/04/13 11:53:30;;;;;;;10.90;2.20;;;;;;;;;;5072659;28;20067;-81
2023/04/13 11:55:56;;;;;;;9.60;2.22;;;;;;;;;;5072396;28;20544;-81
2023/04/13 11:58:22;;;;;;;15.55;2.38;;;;;;;;;;5072677;28;20052;-79
2023/04/13 12:00:48;;;;;;;9.63;2.15;;;;;;;;;;5051933;28;20090;-81
2023/04/13 12:03:19;;;;;;;15.73;2.40;;;;;;;;;;5072679;28;20513;-81
2023/04/13 12:05:46;;;;;;;9.68;1.50;;;;;;;;;;5072524;28;20429;-81
2023/04/13 12:08:22;;;;;;;11.68;1.92;;;;;;;;;;5073669;28;20036;-81
2023/04/13 12:10:56;;;;;;;12.45;2.50;;;;;;;;;;5073135;28;20040;-81
2023/04/13 12:13:22;;;;;;;8.60;1.98;;;;;;;;;;5073064;28;20462;-81
2023/04/13 12:15:48;;;;;;;10.90;1.85;;;;;;;;;;5058012;28;20072;-81
2023/04/13 12:18:15;;;;;;;8.13;1.63;;;;;;;;;;5055209;28;20036;-81
2023/04/13 12:20:45;;;;;;;8.32;1.80;;;;;;;;;;5070895;28;20036;-81
2023/04/13 12:23:17;;;;;;;8.38;1.50;;;;;;;;;;5071792;28;20131;-82
2023/04/13 12:25:56;;;;;;;10.23;2.53;;;;;;;;;;5071319;28;20074;-81
2023/04/13 12:28:27;;;;;;;9.57;1.55;;;;;;;;;;5055193;28;20055;-81
2023/04/13 12:30:53;;;;;;;7.78;1.67;;;;;;;;;;5071415;28;20567;-81
2023/04/13 12:33:20;;;;;;;8.85;1.50;;;;;;;;;;5072982;28;20473;-81
2023/04/13 12:35:46;;;;;;;9.25;1.58;;;;;;;;;;5070852;28;20079;-81
2023/04/13 12:38:12;;;;;;;11.27;2.03;;;;;;;;;;5071731;28;20078;-81
2023/04/13 12:40:38;;;;;;;10.52;2.08;;;;;;;;;;5072615;28;20044;-81
2023/04/13 12:43:04;;;;;;;12.40;1.80;;;;;;;;;;5060555;28;20510;-81
2023/04/13 12:45:30;;;;;;;8.10;1.70;;;;;;;;;;5052587;28;20073;-81
2023/04/13 12:47:56;;;;;;;9.15;1.45;;;;;;;;;;5052256;28;20486;-81
2023/04/13 12:50:22;;;;;;;11.18;1.98;;;;;;;;;;5052457;28;20041;-81
2023/04/13 12:52:48;;;;;;;11.38;1.98;;;;;;;;;;5034233;28;20053;-81
2023/04/13 12:55:15;;;;;;;11.15;1.83;;;;;;;;;;5052293;28;20047;-81
2023/04/13 12:57:41;;;;;;;8.73;1.40;;;;;;;;;;5051312;28;20489;-81
2023/04/13 13:00:09;;;;;;;9.38;1.73;;;;;;;;;;5050815;28;20508;-81
2023/04/13 13:02:36;;;;;;;7.90;1.38;;;;;;;;;;5042408;28;20075;-81
2023/04/13 13:05:03;;;;;;;7.80;2.10;;;;;;;;;;5050297;28;20041;-81
2023/04/13 13:07:29;;;;;;;7.38;1.40;;;;;;;;;;5018453;28;20098;-81
2023/04/13 13:09:59;;;;;;;8.05;1.83;;;;;;;;;;5052065;28;20041;-81
2023/04/13 13:12:28;;;;;;;9.00;1.77;;;;;;;;;;5052080;28;20049;-81
2023/04/13 13:14:55;;;;;;;10.75;1.70;;;;;;;;;;5051569;28;20116;-81
2023/04/13 13:17:21;;;;;;;10.13;1.75;;;;;;;;;;5050698;28;20045;-81
2023/04/13 13:19:47;;;;;;;10.68;2.28;;;;;;;;;;5050558;28;20045;-81
2023/04/13 13:22:13;;;;;;;9.63;1.80;;;;;;;;;;5051169;28;20525;-81
2023/04/13 13:24:39;;;;;;;9.68;1.77;;;;;;;;;;5050775;28;20065;-81
2023/04/13 13:27:05;;;;;;;9.82;1.70;;;;;;;;;;5050284;28;20056;-81
2023/04/13 13:29:34;;;;;;;10.35;2.10;;;;;;;;;;5051972;28;20041;-81
2023/04/13 13:32:00;;;;;;;11.05;1.92;;;;;;;;;;5052204;28;20055;-81
2023/04/13 13:34:26;;;;;;;10.43;1.88;;;;;;;;;;5054709;28;20041;-81
2023/04/13 13:36:52;;;;;;;9.05;1.60;;;;;;;;;;5054346;28;20048;-81
2023/04/13 13:39:20;;;;;;;7.80;1.65;;;;;;;;;;5054853;28;20055;-81
2023/04/13 13:41:46;;;;;;;7.88;2.08;;;;;;;;;;5054774;28;20040;-81
2023/04/13 13:44:12;;;;;;;11.05;1.58;;;;;;;;;;5055489;28;20086;-81
2023/04/13 13:46:38;;;;;;;7.72;1.58;;;;;;;;;;5056105;28;20503;-81
2023/04/13 13:49:05;;;;;;;9.45;1.45;;;;;;;;;;5055556;28;20083;-81
2023/04/13 13:51:32;;;;;;;4.88;1.40;;;;;;;;;;5054286;28;20576;-81
2023/04/13 13:53:58;;;;;;;7.72;1.40;;;;;;;;;;5054067;28;20045;-81
2023/04/13 13:56:25;;;;;;;8.90;1.50;;;;;;;;;;5054802;28;20486;-81
2023/04/13 13:58:51;;;;;;;12.45;1.55;;;;;;;;;;5055961;28;20471;-81
2023/04/13 14:01:17;;;;;;;9.25;1.60;;;;;;;;;;5070049;28;20116;-81
2023/04/13 14:03:43;;;;;;;7.03;1.50;;;;;;;;;;5054359;28;20041;-82
2023/04/13 14:06:10;;;;;;;7.03;1.30;;;;;;;;;;5053855;28;20544;-81
2023/04/13 14:08:36;;;;;;;6.90;1.23;;;;;;;;;;5055612;28;20041;-82
2023/04/13 14:11:03;;;;;;;6.95;1.40;;;;;;;;;;5053594;28;20080;-82
2023/04/13 14:13:30;;;;;;;9.27;1.52;;;;;;;;;;5054169;28;20049;-81
2023/04/13 14:15:56;;;;;;;6.35;1.30;;;;;;;;;;5053581;28;20049;-81
2023/04/13 14:18:25;;;;;;;8.48;1.90;;;;;;;;;;5054097;28;20041;-80
2023/04/13 14:20:52;;;;;;;12.00;1.70;;;;;;;;;;5054117;28;20099;-81
2023/04/13 14:23:18;;;;;;;5.95;1.65;;;;;;;;;;5053824;28;20158;-80
2023/04/13 14:25:44;;;;;;;8.60;1.63;;;;;;;;;;5055215;28;20037;-81
2023/04/13 14:28:10;;;;;;;8.40;1.55;;;;;;;;;;5054735;28;20052;-81
2023/04/13 14:30:37;;;;;;;11.57;1.73;;;;;;;;;;5054200;28;20106;-81
2023/04/13 14:33:03;;;;;;;6.80;1.50;;;;;;;;;;5070025;28;20077;-81
2023/04/13 14:35:29;;;;;;;9.25;1.58;;;;;;;;;;5037114;28;20041;-81
2023/04/13 14:37:56;;;;;;;10.90;1.60;;;;;;;;;;5053581;28;20053;-81
2023/04/13 14:40:22;;;;;;;10.70;1.50;;;;;;;;;;5054557;28;20512;-81
2023/04/13 14:42:51;;;;;;;12.73;1.58;;;;;;;;;;5036707;28;20037;-80